sensor_id;sensor_type;location;lat;lon;timestamp;temperature;humidity
78475;SHT31;67766;51.964;5.660;2023-04-24T00:02:13;12.5;71.6
78475;SHT31;67766;51.964;5.660;2023-04-24T00:04:43;12.5;71.3
78475;SHT31;67766;51.964;5.660;2023-04-24T00:07:13;12.6;71.0
78475;SHT31;67766;51.964;5.660;2023-04-24T00:09:44;12.6;70.7
78475;SHT31;67766;51.964;5.660;2023-04-24T00:12:13;12.6;70.8
78475;SHT31;67766;51.964;5.660;2023-04-24T00:14:43;12.6;70.7
78475;SHT31;67766;51.964;5.660;2023-04-24T00:17:13;12.6;70.6
78475;SHT31;67766;51.964;5.660;2023-04-24T00:19:42;12.6;70.6
78475;SHT31;67766;51.964;5.660;2023-04-24T00:22:12;12.6;70.5
78475;SHT31;67766;51.964;5.660;2023-04-24T00:24:42;12.6;70.3
78475;SHT31;67766;51.964;5.660;2023-04-24T00:27:12;12.6;70.7
78475;SHT31;67766;51.964;5.660;2023-04-24T00:29:41;12.6;70.8
78475;SHT31;67766;51.964;5.660;2023-04-24T00:32:11;12.6;70.5
78475;SHT31;67766;51.964;5.660;2023-04-24T00:34:41;12.6;69.9
78475;SHT31;67766;51.964;5.660;2023-04-24T00:37:11;12.6;70.0
78475;SHT31;67766;51.964;5.660;2023-04-24T00:39:42;12.6;70.1
78475;SHT31;67766;51.964;5.660;2023-04-24T00:42:12;12.6;70.3
78475;SHT31;67766;51.964;5.660;2023-04-24T00:44:42;12.6;70.2
78475;SHT31;67766;51.964;5.660;2023-04-24T00:47:12;12.6;70.5
78475;SHT31;67766;51.964;5.660;2023-04-24T00:49:42;12.6;70.9
78475;SHT31;67766;51.964;5.660;2023-04-24T00:52:12;12.6;71.1
78475;SHT31;67766;51.964;5.660;2023-04-24T00:54:45;12.7;71.1
78475;SHT31;67766;51.964;5.660;2023-04-24T00:57:15;12.7;71.2
78475;SHT31;67766;51.964;5.660;2023-04-24T00:59:48;12.7;71.3
78475;SHT31;67766;51.964;5.660;2023-04-24T01:02:18;12.7;71.2
78475;SHT31;67766;51.964;5.660;2023-04-24T01:04:48;12.7;71.2
78475;SHT31;67766;51.964;5.660;2023-04-24T01:07:20;12.8;71.7
78475;SHT31;67766;51.964;5.660;2023-04-24T01:09:50;12.8;71.2
78475;SHT31;67766;51.964;5.660;2023-04-24T01:12:20;12.8;69.3
78475;SHT31;67766;51.964;5.660;2023-04-24T01:14:50;12.9;69.5
78475;SHT31;67766;51.964;5.660;2023-04-24T01:17:21;12.9;69.4
78475;SHT31;67766;51.964;5.660;2023-04-24T01:19:51;12.9;69.2
78475;SHT31;67766;51.964;5.660;2023-04-24T01:22:24;12.9;68.3
78475;SHT31;67766;51.964;5.660;2023-04-24T01:24:54;12.8;68.7
78475;SHT31;67766;51.964;5.660;2023-04-24T01:27:23;12.8;69.0
78475;SHT31;67766;51.964;5.660;2023-04-24T01:29:55;12.8;69.3
78475;SHT31;67766;51.964;5.660;2023-04-24T01:32:25;12.8;69.5
78475;SHT31;67766;51.964;5.660;2023-04-24T01:34:55;12.8;69.7
78475;SHT31;67766;51.964;5.660;2023-04-24T01:37:25;12.7;69.9
78475;SHT31;67766;51.964;5.660;2023-04-24T01:39:55;12.7;70.2
78475;SHT31;67766;51.964;5.660;2023-04-24T01:42:25;12.7;70.4
78475;SHT31;67766;51.964;5.660;2023-04-24T01:44:58;12.7;70.3
78475;SHT31;67766;51.964;5.660;2023-04-24T01:47:28;12.8;70.2
78475;SHT31;67766;51.964;5.660;2023-04-24T01:49:59;12.8;70.3
78475;SHT31;67766;51.964;5.660;2023-04-24T01:52:28;12.8;70.7
78475;SHT31;67766;51.964;5.660;2023-04-24T01:55:01;12.8;70.7
78475;SHT31;67766;51.964;5.660;2023-04-24T01:57:31;12.8;70.7
78475;SHT31;67766;51.964;5.660;2023-04-24T02:00:02;12.8;70.7
78475;SHT31;67766;51.964;5.660;2023-04-24T02:02:34;12.9;71.0
78475;SHT31;67766;51.964;5.660;2023-04-24T02:05:05;12.9;71.1
78475;SHT31;67766;51.964;5.660;2023-04-24T02:07:36;12.9;70.9
78475;SHT31;67766;51.964;5.660;2023-04-24T02:10:06;13.0;71.0
78475;SHT31;67766;51.964;5.660;2023-04-24T02:12:36;13.0;70.9
78475;SHT31;67766;51.964;5.660;2023-04-24T02:15:08;13.0;70.6
78475;SHT31;67766;51.964;5.660;2023-04-24T02:17:38;13.1;70.7
78475;SHT31;67766;51.964;5.660;2023-04-24T02:20:09;13.1;70.8
78475;SHT31;67766;51.964;5.660;2023-04-24T02:22:39;13.1;70.8
78475;SHT31;67766;51.964;5.660;2023-04-24T02:25:09;13.2;70.6
78475;SHT31;67766;51.964;5.660;2023-04-24T02:27:41;13.2;70.5
78475;SHT31;67766;51.964;5.660;2023-04-24T02:30:13;13.3;70.7
78475;SHT31;67766;51.964;5.660;2023-04-24T02:32:43;13.3;70.6
78475;SHT31;67766;51.964;5.660;2023-04-24T02:35:12;13.3;70.1
78475;SHT31;67766;51.964;5.660;2023-04-24T02:37:42;13.3;70.0
78475;SHT31;67766;51.964;5.660;2023-04-24T02:40:13;13.3;69.3
78475;SHT31;67766;51.964;5.660;2023-04-24T02:42:43;13.3;69.5
78475;SHT31;67766;51.964;5.660;2023-04-24T02:45:12;13.2;69.2
78475;SHT31;67766;51.964;5.660;2023-04-24T02:47:42;13.1;69.7
78475;SHT31;67766;51.964;5.660;2023-04-24T02:50:11;13.1;69.7
78475;SHT31;67766;51.964;5.660;2023-04-24T02:52:41;13.0;69.4
78475;SHT31;67766;51.964;5.660;2023-04-24T02:55:11;13.0;68.7
78475;SHT31;67766;51.964;5.660;2023-04-24T02:57:40;12.9;68.8
78475;SHT31;67766;51.964;5.660;2023-04-24T03:00:11;12.9;68.9
78475;SHT31;67766;51.964;5.660;2023-04-24T03:02:41;12.9;69.5
78475;SHT31;67766;51.964;5.660;2023-04-24T03:05:10;12.9;69.5
78475;SHT31;67766;51.964;5.660;2023-04-24T03:07:40;12.9;70.1
78475;SHT31;67766;51.964;5.660;2023-04-24T03:10:10;12.8;70.6
78475;SHT31;67766;51.964;5.660;2023-04-24T03:12:40;12.8;70.8
78475;SHT31;67766;51.964;5.660;2023-04-24T03:15:10;12.8;71.3
78475;SHT31;67766;51.964;5.660;2023-04-24T03:17:40;12.9;71.2
78475;SHT31;67766;51.964;5.660;2023-04-24T03:20:10;12.9;71.2
78475;SHT31;67766;51.964;5.660;2023-04-24T03:22:41;12.9;71.2
78475;SHT31;67766;51.964;5.660;2023-04-24T03:25:11;12.9;70.6
78475;SHT31;67766;51.964;5.660;2023-04-24T03:27:40;12.8;70.8
78475;SHT31;67766;51.964;5.660;2023-04-24T03:30:10;12.8;70.4
78475;SHT31;67766;51.964;5.660;2023-04-24T03:32:40;12.8;70.6
78475;SHT31;67766;51.964;5.660;2023-04-24T03:35:10;12.8;70.5
78475;SHT31;67766;51.964;5.660;2023-04-24T03:37:39;12.7;71.0
78475;SHT31;67766;51.964;5.660;2023-04-24T03:40:10;12.7;71.2
78475;SHT31;67766;51.964;5.660;2023-04-24T03:42:39;12.7;70.9
78475;SHT31;67766;51.964;5.660;2023-04-24T03:45:10;12.7;70.8
78475;SHT31;67766;51.964;5.660;2023-04-24T03:47:39;12.6;70.4
78475;SHT31;67766;51.964;5.660;2023-04-24T03:50:10;12.5;70.8
78475;SHT31;67766;51.964;5.660;2023-04-24T03:52:40;12.5;71.3
78475;SHT31;67766;51.964;5.660;2023-04-24T03:55:10;12.4;71.5
78475;SHT31;67766;51.964;5.660;2023-04-24T03:57:40;12.3;71.9
78475;SHT31;67766;51.964;5.660;2023-04-24T04:00:11;12.2;71.4
78475;SHT31;67766;51.964;5.660;2023-04-24T04:02:41;12.1;71.9
78475;SHT31;67766;51.964;5.660;2023-04-24T04:05:11;12.1;72.1
78475;SHT31;67766;51.964;5.660;2023-04-24T04:07:40;12.0;71.9
78475;SHT31;67766;51.964;5.660;2023-04-24T04:10:10;11.9;71.8
78475;SHT31;67766;51.964;5.660;2023-04-24T04:12:40;11.9;72.1
78475;SHT31;67766;51.964;5.660;2023-04-24T04:15:10;11.8;72.1
78475;SHT31;67766;51.964;5.660;2023-04-24T04:17:40;11.7;72.1
78475;SHT31;67766;51.964;5.660;2023-04-24T04:20:10;11.7;73.0
78475;SHT31;67766;51.964;5.660;2023-04-24T04:22:42;11.6;73.2
78475;SHT31;67766;51.964;5.660;2023-04-24T04:25:12;11.5;73.3
78475;SHT31;67766;51.964;5.660;2023-04-24T04:27:42;11.4;73.7
78475;SHT31;67766;51.964;5.660;2023-04-24T04:30:11;11.3;74.1
78475;SHT31;67766;51.964;5.660;2023-04-24T04:32:41;11.3;75.1
78475;SHT31;67766;51.964;5.660;2023-04-24T04:35:11;11.2;75.0
78475;SHT31;67766;51.964;5.660;2023-04-24T04:37:40;11.1;75.5
78475;SHT31;67766;51.964;5.660;2023-04-24T04:40:11;11.0;75.9
78475;SHT31;67766;51.964;5.660;2023-04-24T04:42:42;11.0;76.4
78475;SHT31;67766;51.964;5.660;2023-04-24T04:45:13;10.9;76.9
78475;SHT31;67766;51.964;5.660;2023-04-24T04:47:44;10.8;78.7
78475;SHT31;67766;51.964;5.660;2023-04-24T04:50:14;10.8;79.2
78475;SHT31;67766;51.964;5.660;2023-04-24T04:52:44;10.8;79.2
78475;SHT31;67766;51.964;5.660;2023-04-24T04:55:13;10.8;77.7
78475;SHT31;67766;51.964;5.660;2023-04-24T04:57:43;10.8;78.2
78475;SHT31;67766;51.964;5.660;2023-04-24T05:00:13;10.9;79.0
78475;SHT31;67766;51.964;5.660;2023-04-24T05:02:45;10.9;79.6
78475;SHT31;67766;51.964;5.660;2023-04-24T05:05:15;11.0;79.4
78475;SHT31;67766;51.964;5.660;2023-04-24T05:07:45;11.1;78.6
78475;SHT31;67766;51.964;5.660;2023-04-24T05:10:14;11.3;78.2
78475;SHT31;67766;51.964;5.660;2023-04-24T05:12:44;11.4;77.8
78475;SHT31;67766;51.964;5.660;2023-04-24T05:15:13;11.5;76.8
78475;SHT31;67766;51.964;5.660;2023-04-24T05:17:45;11.7;76.3
78475;SHT31;67766;51.964;5.660;2023-04-24T05:20:14;11.8;75.6
78475;SHT31;67766;51.964;5.660;2023-04-24T05:22:44;11.9;75.6
78475;SHT31;67766;51.964;5.660;2023-04-24T05:25:15;12.0;75.4
78475;SHT31;67766;51.964;5.660;2023-04-24T05:27:46;12.1;74.1
78475;SHT31;67766;51.964;5.660;2023-04-24T05:30:15;12.2;73.5
78475;SHT31;67766;51.964;5.660;2023-04-24T05:32:45;12.3;73.6
78475;SHT31;67766;51.964;5.660;2023-04-24T05:35:15;12.4;73.3
78475;SHT31;67766;51.964;5.660;2023-04-24T05:37:46;12.4;73.7
78475;SHT31;67766;51.964;5.660;2023-04-24T05:40:15;12.5;73.4
78475;SHT31;67766;51.964;5.660;2023-04-24T05:42:45;12.6;73.4
78475;SHT31;67766;51.964;5.660;2023-04-24T05:45:15;12.6;72.8
78475;SHT31;67766;51.964;5.660;2023-04-24T05:47:44;12.7;72.8
78475;SHT31;67766;51.964;5.660;2023-04-24T05:50:14;12.7;72.3
78475;SHT31;67766;51.964;5.660;2023-04-24T05:52:43;12.8;70.9
78475;SHT31;67766;51.964;5.660;2023-04-24T05:55:13;12.8;70.8
78475;SHT31;67766;51.964;5.660;2023-04-24T05:57:44;12.9;71.7
78475;SHT31;67766;51.964;5.660;2023-04-24T06:00:15;12.9;71.5
78475;SHT31;67766;51.964;5.660;2023-04-24T06:02:46;13.0;71.7
78475;SHT31;67766;51.964;5.660;2023-04-24T06:05:16;13.0;71.5
78475;SHT31;67766;51.964;5.660;2023-04-24T06:07:45;13.1;71.6
78475;SHT31;67766;51.964;5.660;2023-04-24T06:10:15;13.1;70.9
78475;SHT31;67766;51.964;5.660;2023-04-24T06:12:45;13.1;70.7
78475;SHT31;67766;51.964;5.660;2023-04-24T06:15:14;13.2;70.8
78475;SHT31;67766;51.964;5.660;2023-04-24T06:17:44;13.2;70.6
78475;SHT31;67766;51.964;5.660;2023-04-24T06:20:13;13.3;70.4
78475;SHT31;67766;51.964;5.660;2023-04-24T06:22:43;13.3;70.4
78475;SHT31;67766;51.964;5.660;2023-04-24T06:25:13;13.3;70.3
78475;SHT31;67766;51.964;5.660;2023-04-24T06:27:44;13.4;70.3
78475;SHT31;67766;51.964;5.660;2023-04-24T06:30:14;13.4;70.2
78475;SHT31;67766;51.964;5.660;2023-04-24T06:32:43;13.4;69.7
78475;SHT31;67766;51.964;5.660;2023-04-24T06:35:13;13.4;69.3
78475;SHT31;67766;51.964;5.660;2023-04-24T06:37:43;13.5;68.8
78475;SHT31;67766;51.964;5.660;2023-04-24T06:40:13;13.5;68.8
78475;SHT31;67766;51.964;5.660;2023-04-24T06:42:42;13.5;68.9
78475;SHT31;67766;51.964;5.660;2023-04-24T06:45:14;13.5;68.5
78475;SHT31;67766;51.964;5.660;2023-04-24T06:47:44;13.6;68.3
78475;SHT31;67766;51.964;5.660;2023-04-24T06:50:15;13.6;68.5
78475;SHT31;67766;51.964;5.660;2023-04-24T06:52:45;13.6;68.4
78475;SHT31;67766;51.964;5.660;2023-04-24T06:55:14;13.6;68.1
78475;SHT31;67766;51.964;5.660;2023-04-24T06:57:46;13.6;67.4
78475;SHT31;67766;51.964;5.660;2023-04-24T07:00:16;13.6;67.2
78475;SHT31;67766;51.964;5.660;2023-04-24T07:02:46;13.6;67.0
78475;SHT31;67766;51.964;5.660;2023-04-24T07:05:16;13.6;67.1
78475;SHT31;67766;51.964;5.660;2023-04-24T07:07:47;13.6;67.0
78475;SHT31;67766;51.964;5.660;2023-04-24T07:10:18;13.6;67.0
78475;SHT31;67766;51.964;5.660;2023-04-24T07:12:48;13.6;67.0
78475;SHT31;67766;51.964;5.660;2023-04-24T07:15:19;13.6;66.7
78475;SHT31;67766;51.964;5.660;2023-04-24T07:17:49;13.6;66.6
78475;SHT31;67766;51.964;5.660;2023-04-24T07:20:21;13.5;66.1
78475;SHT31;67766;51.964;5.660;2023-04-24T07:22:51;13.5;66.2
78475;SHT31;67766;51.964;5.660;2023-04-24T07:25:21;13.5;66.6
78475;SHT31;67766;51.964;5.660;2023-04-24T07:27:50;13.5;66.6
78475;SHT31;67766;51.964;5.660;2023-04-24T07:30:20;13.5;66.4
78475;SHT31;67766;51.964;5.660;2023-04-24T07:32:50;13.5;66.3
78475;SHT31;67766;51.964;5.660;2023-04-24T07:35:19;13.5;66.4
78475;SHT31;67766;51.964;5.660;2023-04-24T07:37:49;13.5;66.3
78475;SHT31;67766;51.964;5.660;2023-04-24T07:40:21;13.5;66.3
78475;SHT31;67766;51.964;5.660;2023-04-24T07:42:52;13.5;66.1
78475;SHT31;67766;51.964;5.660;2023-04-24T07:45:22;13.5;65.4
78475;SHT31;67766;51.964;5.660;2023-04-24T07:47:53;13.5;65.3
78475;SHT31;67766;51.964;5.660;2023-04-24T07:50:23;13.5;65.1
78475;SHT31;67766;51.964;5.660;2023-04-24T07:52:52;13.4;64.6
78475;SHT31;67766;51.964;5.660;2023-04-24T07:55:22;13.4;64.9
78475;SHT31;67766;51.964;5.660;2023-04-24T07:57:52;13.4;65.2
78475;SHT31;67766;51.964;5.660;2023-04-24T08:00:21;13.4;65.3
78475;SHT31;67766;51.964;5.660;2023-04-24T08:02:51;13.4;65.4
78475;SHT31;67766;51.964;5.660;2023-04-24T08:05:20;13.4;65.3
78475;SHT31;67766;51.964;5.660;2023-04-24T08:07:52;13.4;65.2
78475;SHT31;67766;51.964;5.660;2023-04-24T08:10:23;13.4;65.2
78475;SHT31;67766;51.964;5.660;2023-04-24T08:12:53;13.4;65.1
78475;SHT31;67766;51.964;5.660;2023-04-24T08:15:24;13.4;65.2
78475;SHT31;67766;51.964;5.660;2023-04-24T08:17:54;13.4;65.1
78475;SHT31;67766;51.964;5.660;2023-04-24T08:20:24;13.4;65.4
78475;SHT31;67766;51.964;5.660;2023-04-24T08:22:53;13.4;64.8
78475;SHT31;67766;51.964;5.660;2023-04-24T08:25:24;13.4;65.0
78475;SHT31;67766;51.964;5.660;2023-04-24T08:27:54;13.4;65.1
78475;SHT31;67766;51.964;5.660;2023-04-24T08:30:23;13.5;65.2
78475;SHT31;67766;51.964;5.660;2023-04-24T08:32:53;13.5;65.3
78475;SHT31;67766;51.964;5.660;2023-04-24T08:35:23;13.5;65.1
78475;SHT31;67766;51.964;5.660;2023-04-24T08:37:54;13.5;64.5
78475;SHT31;67766;51.964;5.660;2023-04-24T08:40:28;13.5;64.6
78475;SHT31;67766;51.964;5.660;2023-04-24T08:43:00;13.5;65.1
78475;SHT31;67766;51.964;5.660;2023-04-24T08:45:30;13.5;65.1
78475;SHT31;67766;51.964;5.660;2023-04-24T08:48:02;13.5;64.9
78475;SHT31;67766;51.964;5.660;2023-04-24T08:50:36;13.5;64.7
78475;SHT31;67766;51.964;5.660;2023-04-24T08:53:08;13.5;64.4
78475;SHT31;67766;51.964;5.660;2023-04-24T08:55:38;13.5;64.8
78475;SHT31;67766;51.964;5.660;2023-04-24T08:58:11;13.5;64.5
78475;SHT31;67766;51.964;5.660;2023-04-24T09:00:41;13.5;64.0
78475;SHT31;67766;51.964;5.660;2023-04-24T09:03:15;13.5;64.3
78475;SHT31;67766;51.964;5.660;2023-04-24T09:05:49;13.5;64.4
78475;SHT31;67766;51.964;5.660;2023-04-24T09:08:25;13.5;64.2
78475;SHT31;67766;51.964;5.660;2023-04-24T09:10:55;13.6;64.3
78475;SHT31;67766;51.964;5.660;2023-04-24T09:13:26;13.6;63.9
78475;SHT31;67766;51.964;5.660;2023-04-24T09:15:56;13.6;63.7
78475;SHT31;67766;51.964;5.660;2023-04-24T09:18:29;13.6;63.2
78475;SHT31;67766;51.964;5.660;2023-04-24T09:21:02;13.6;62.7
78475;SHT31;67766;51.964;5.660;2023-04-24T09:23:32;13.6;61.6
78475;SHT31;67766;51.964;5.660;2023-04-24T09:26:03;13.6;61.1
78475;SHT31;67766;51.964;5.660;2023-04-24T09:28:36;13.6;60.5
78475;SHT31;67766;51.964;5.660;2023-04-24T09:31:08;13.6;60.3
78475;SHT31;67766;51.964;5.660;2023-04-24T09:33:38;13.7;60.4
78475;SHT31;67766;51.964;5.660;2023-04-24T09:36:08;13.7;60.3
78475;SHT31;67766;51.964;5.660;2023-04-24T09:38:38;13.7;60.8
78475;SHT31;67766;51.964;5.660;2023-04-24T09:41:08;13.7;60.9
78475;SHT31;67766;51.964;5.660;2023-04-24T09:43:42;13.7;61.5
78475;SHT31;67766;51.964;5.660;2023-04-24T09:46:12;13.8;60.6
78475;SHT31;67766;51.964;5.660;2023-04-24T09:48:42;13.8;60.6
78475;SHT31;67766;51.964;5.660;2023-04-24T09:51:12;13.8;60.6
78475;SHT31;67766;51.964;5.660;2023-04-24T09:53:45;13.9;60.3
78475;SHT31;67766;51.964;5.660;2023-04-24T09:56:15;13.9;59.7
78475;SHT31;67766;51.964;5.660;2023-04-24T09:58:48;13.9;59.1
78475;SHT31;67766;51.964;5.660;2023-04-24T10:01:31;14.0;59.5
78475;SHT31;67766;51.964;5.660;2023-04-24T10:04:01;14.0;59.6
78475;SHT31;67766;51.964;5.660;2023-04-24T10:06:35;14.1;59.8
78475;SHT31;67766;51.964;5.660;2023-04-24T10:09:07;14.2;58.9
78475;SHT31;67766;51.964;5.660;2023-04-24T10:11:41;14.2;57.9
78475;SHT31;67766;51.964;5.660;2023-04-24T10:14:15;14.3;58.1
78475;SHT31;67766;51.964;5.660;2023-04-24T10:16:47;14.4;57.1
78475;SHT31;67766;51.964;5.660;2023-04-24T10:19:17;14.5;56.8
78475;SHT31;67766;51.964;5.660;2023-04-24T10:21:48;14.6;56.4
78475;SHT31;67766;51.964;5.660;2023-04-24T10:24:18;14.7;53.8
78475;SHT31;67766;51.964;5.660;2023-04-24T10:26:49;14.7;53.4
78475;SHT31;67766;51.964;5.660;2023-04-24T10:29:19;14.8;52.1
78475;SHT31;67766;51.964;5.660;2023-04-24T10:31:49;14.8;51.8
78475;SHT31;67766;51.964;5.660;2023-04-24T10:34:21;14.8;51.0
78475;SHT31;67766;51.964;5.660;2023-04-24T10:36:53;14.8;51.2
78475;SHT31;67766;51.964;5.660;2023-04-24T10:39:24;14.8;51.2
78475;SHT31;67766;51.964;5.660;2023-04-24T10:41:54;14.8;51.3
78475;SHT31;67766;51.964;5.660;2023-04-24T10:44:37;14.8;50.7
78475;SHT31;67766;51.964;5.660;2023-04-24T10:47:14;14.8;50.3
78475;SHT31;67766;51.964;5.660;2023-04-24T10:49:44;14.8;50.9
78475;SHT31;67766;51.964;5.660;2023-04-24T10:52:16;14.8;51.4
78475;SHT31;67766;51.964;5.660;2023-04-24T10:54:47;14.8;51.7
78475;SHT31;67766;51.964;5.660;2023-04-24T10:57:29;14.8;52.3
78475;SHT31;67766;51.964;5.660;2023-04-24T11:00:13;14.8;53.0
78475;SHT31;67766;51.964;5.660;2023-04-24T11:02:46;14.8;53.7
78475;SHT31;67766;51.964;5.660;2023-04-24T11:05:21;14.8;52.9
78475;SHT31;67766;51.964;5.660;2023-04-24T11:08:12;14.8;52.4
78475;SHT31;67766;51.964;5.660;2023-04-24T11:10:46;14.8;52.2
78475;SHT31;67766;51.964;5.660;2023-04-24T11:13:24;14.8;52.1
78475;SHT31;67766;51.964;5.660;2023-04-24T11:16:25;14.9;51.8
78475;SHT31;67766;51.964;5.660;2023-04-24T11:19:03;14.9;51.7
78475;SHT31;67766;51.964;5.660;2023-04-24T11:21:41;14.9;51.3
78475;SHT31;67766;51.964;5.660;2023-04-24T11:24:25;14.8;51.7
78475;SHT31;67766;51.964;5.660;2023-04-24T11:26:57;14.8;52.2
78475;SHT31;67766;51.964;5.660;2023-04-24T11:29:40;14.9;52.9
78475;SHT31;67766;51.964;5.660;2023-04-24T11:32:47;14.9;54.1
78475;SHT31;67766;51.964;5.660;2023-04-24T11:35:19;15.0;53.3
78475;SHT31;67766;51.964;5.660;2023-04-24T11:37:53;15.0;54.6
78475;SHT31;67766;51.964;5.660;2023-04-24T11:40:23;15.1;53.7
78475;SHT31;67766;51.964;5.660;2023-04-24T11:42:54;15.2;52.0
78475;SHT31;67766;51.964;5.660;2023-04-24T11:45:25;15.3;51.1
78475;SHT31;67766;51.964;5.660;2023-04-24T11:47:56;15.4;50.7
78475;SHT31;67766;51.964;5.660;2023-04-24T11:50:27;15.4;51.3
78475;SHT31;67766;51.964;5.660;2023-04-24T11:52:57;15.5;51.0
78475;SHT31;67766;51.964;5.660;2023-04-24T11:55:29;15.5;50.1
78475;SHT31;67766;51.964;5.660;2023-04-24T11:57:59;15.5;50.3
78475;SHT31;67766;51.964;5.660;2023-04-24T12:00:31;15.5;50.4
78475;SHT31;67766;51.964;5.660;2023-04-24T12:03:06;15.5;50.2
78475;SHT31;67766;51.964;5.660;2023-04-24T12:05:37;15.5;51.1
78475;SHT31;67766;51.964;5.660;2023-04-24T12:08:07;15.4;52.2
78475;SHT31;67766;51.964;5.660;2023-04-24T12:10:37;15.4;52.4
78475;SHT31;67766;51.964;5.660;2023-04-24T12:13:11;15.4;52.5
78475;SHT31;67766;51.964;5.660;2023-04-24T12:15:42;15.4;53.0
78475;SHT31;67766;51.964;5.660;2023-04-24T12:18:14;15.4;51.9
78475;SHT31;67766;51.964;5.660;2023-04-24T12:20:44;15.4;51.7
78475;SHT31;67766;51.964;5.660;2023-04-24T12:23:14;15.4;51.5
78475;SHT31;67766;51.964;5.660;2023-04-24T12:25:43;15.4;50.3
78475;SHT31;67766;51.964;5.660;2023-04-24T12:28:13;15.4;50.3
78475;SHT31;67766;51.964;5.660;2023-04-24T12:30:46;15.4;50.3
78475;SHT31;67766;51.964;5.660;2023-04-24T12:33:20;15.3;49.4
78475;SHT31;67766;51.964;5.660;2023-04-24T12:35:52;15.3;49.5
78475;SHT31;67766;51.964;5.660;2023-04-24T12:38:25;15.3;49.7
78475;SHT31;67766;51.964;5.660;2023-04-24T12:41:07;15.3;49.7
78475;SHT31;67766;51.964;5.660;2023-04-24T12:43:37;15.3;50.3
78475;SHT31;67766;51.964;5.660;2023-04-24T12:46:07;15.3;50.3
78475;SHT31;67766;51.964;5.660;2023-04-24T12:48:36;15.3;50.8
78475;SHT31;67766;51.964;5.660;2023-04-24T12:51:06;15.2;50.2
78475;SHT31;67766;51.964;5.660;2023-04-24T12:53:36;15.2;50.4
78475;SHT31;67766;51.964;5.660;2023-04-24T12:56:05;15.2;49.8
78475;SHT31;67766;51.964;5.660;2023-04-24T12:58:35;15.2;49.6
78475;SHT31;67766;51.964;5.660;2023-04-24T13:01:07;15.2;49.3
78475;SHT31;67766;51.964;5.660;2023-04-24T13:03:37;15.2;49.7
78475;SHT31;67766;51.964;5.660;2023-04-24T13:06:06;15.2;50.2
78475;SHT31;67766;51.964;5.660;2023-04-24T13:08:36;15.2;49.8
78475;SHT31;67766;51.964;5.660;2023-04-24T13:11:05;15.2;50.1
78475;SHT31;67766;51.964;5.660;2023-04-24T13:13:35;15.2;49.3
78475;SHT31;67766;51.964;5.660;2023-04-24T13:16:05;15.2;48.4
78475;SHT31;67766;51.964;5.660;2023-04-24T13:18:34;15.2;48.1
78475;SHT31;67766;51.964;5.660;2023-04-24T13:21:04;15.2;48.9
78475;SHT31;67766;51.964;5.660;2023-04-24T13:23:33;15.2;48.0
78475;SHT31;67766;51.964;5.660;2023-04-24T13:26:04;15.2;47.5
78475;SHT31;67766;51.964;5.660;2023-04-24T13:28:33;15.2;47.9
78475;SHT31;67766;51.964;5.660;2023-04-24T13:31:03;15.2;48.5
78475;SHT31;67766;51.964;5.660;2023-04-24T13:33:33;15.2;48.9
78475;SHT31;67766;51.964;5.660;2023-04-24T13:36:03;15.2;48.6
78475;SHT31;67766;51.964;5.660;2023-04-24T13:38:33;15.3;49.3
78475;SHT31;67766;51.964;5.660;2023-04-24T13:41:02;15.3;49.2
78475;SHT31;67766;51.964;5.660;2023-04-24T13:43:32;15.4;48.1
78475;SHT31;67766;51.964;5.660;2023-04-24T13:46:02;15.4;48.4
78475;SHT31;67766;51.964;5.660;2023-04-24T13:48:34;15.4;48.4
78475;SHT31;67766;51.964;5.660;2023-04-24T13:51:03;15.5;45.3
78475;SHT31;67766;51.964;5.660;2023-04-24T13:53:33;15.5;45.2
78475;SHT31;67766;51.964;5.660;2023-04-24T13:56:05;15.6;45.1
78475;SHT31;67766;51.964;5.660;2023-04-24T13:58:36;15.6;45.2
78475;SHT31;67766;51.964;5.660;2023-04-24T14:01:06;15.7;45.8
78475;SHT31;67766;51.964;5.660;2023-04-24T14:03:37;15.7;45.9
78475;SHT31;67766;51.964;5.660;2023-04-24T14:06:07;15.7;45.6
78475;SHT31;67766;51.964;5.660;2023-04-24T14:08:37;15.8;45.7
78475;SHT31;67766;51.964;5.660;2023-04-24T14:11:07;15.8;46.1
78475;SHT31;67766;51.964;5.660;2023-04-24T14:13:37;15.8;46.1
78475;SHT31;67766;51.964;5.660;2023-04-24T14:16:08;15.8;46.3
78475;SHT31;67766;51.964;5.660;2023-04-24T14:18:38;15.8;47.2
78475;SHT31;67766;51.964;5.660;2023-04-24T14:21:09;15.9;46.0
78475;SHT31;67766;51.964;5.660;2023-04-24T14:23:40;16.0;44.4
78475;SHT31;67766;51.964;5.660;2023-04-24T14:26:12;16.1;42.7
78475;SHT31;67766;51.964;5.660;2023-04-24T14:28:42;16.2;43.1
78475;SHT31;67766;51.964;5.660;2023-04-24T14:31:13;16.3;43.6
78475;SHT31;67766;51.964;5.660;2023-04-24T14:33:45;16.4;43.0
78475;SHT31;67766;51.964;5.660;2023-04-24T14:36:17;16.5;42.9
78475;SHT31;67766;51.964;5.660;2023-04-24T14:38:47;16.6;43.1
78475;SHT31;67766;51.964;5.660;2023-04-24T14:41:18;16.7;42.0
78475;SHT31;67766;51.964;5.660;2023-04-24T14:43:52;16.8;41.7
78475;SHT31;67766;51.964;5.660;2023-04-24T14:46:23;16.8;40.9
78475;SHT31;67766;51.964;5.660;2023-04-24T14:48:55;16.9;41.1
78475;SHT31;67766;51.964;5.660;2023-04-24T14:51:25;16.9;41.5
78475;SHT31;67766;51.964;5.660;2023-04-24T14:53:56;16.9;40.7
78475;SHT31;67766;51.964;5.660;2023-04-24T14:56:25;16.9;40.6
78475;SHT31;67766;51.964;5.660;2023-04-24T14:58:55;16.8;41.4
78475;SHT31;67766;51.964;5.660;2023-04-24T15:01:25;16.8;41.5
78475;SHT31;67766;51.964;5.660;2023-04-24T15:03:54;16.8;42.5
78475;SHT31;67766;51.964;5.660;2023-04-24T15:06:24;16.7;42.7
78475;SHT31;67766;51.964;5.660;2023-04-24T15:08:56;16.7;42.5
78475;SHT31;67766;51.964;5.660;2023-04-24T15:11:25;16.7;42.7
78475;SHT31;67766;51.964;5.660;2023-04-24T15:13:56;16.6;42.7
78475;SHT31;67766;51.964;5.660;2023-04-24T15:16:25;16.6;43.3
78475;SHT31;67766;51.964;5.660;2023-04-24T15:18:55;16.5;42.8
78475;SHT31;67766;51.964;5.660;2023-04-24T15:21:25;16.5;42.2
78475;SHT31;67766;51.964;5.660;2023-04-24T15:23:54;16.5;42.3
78475;SHT31;67766;51.964;5.660;2023-04-24T15:26:24;16.4;48.3
78475;SHT31;67766;51.964;5.660;2023-04-24T15:28:54;16.4;43.0
78475;SHT31;67766;51.964;5.660;2023-04-24T15:31:24;16.4;43.5
78475;SHT31;67766;51.964;5.660;2023-04-24T15:33:53;16.3;44.2
78475;SHT31;67766;51.964;5.660;2023-04-24T15:36:23;16.3;44.0
78475;SHT31;67766;51.964;5.660;2023-04-24T15:38:52;16.3;43.0
78475;SHT31;67766;51.964;5.660;2023-04-24T15:41:22;16.2;42.7
78475;SHT31;67766;51.964;5.660;2023-04-24T15:43:52;16.2;42.6
78475;SHT31;67766;51.964;5.660;2023-04-24T15:46:22;16.1;42.6
78475;SHT31;67766;51.964;5.660;2023-04-24T15:48:51;16.1;42.9
78475;SHT31;67766;51.964;5.660;2023-04-24T15:51:22;16.0;43.4
78475;SHT31;67766;51.964;5.660;2023-04-24T15:53:51;16.0;43.5
78475;SHT31;67766;51.964;5.660;2023-04-24T15:56:21;16.0;44.1
78475;SHT31;67766;51.964;5.660;2023-04-24T15:58:51;16.0;44.4
78475;SHT31;67766;51.964;5.660;2023-04-24T16:01:21;15.9;44.6
78475;SHT31;67766;51.964;5.660;2023-04-24T16:03:50;15.9;45.4
78475;SHT31;67766;51.964;5.660;2023-04-24T16:06:20;15.9;45.1
78475;SHT31;67766;51.964;5.660;2023-04-24T16:08:49;15.8;45.1
78475;SHT31;67766;51.964;5.660;2023-04-24T16:11:19;15.8;45.5
78475;SHT31;67766;51.964;5.660;2023-04-24T16:13:49;15.8;46.0
78475;SHT31;67766;51.964;5.660;2023-04-24T16:16:19;15.7;46.1
78475;SHT31;67766;51.964;5.660;2023-04-24T16:18:50;15.7;45.0
78475;SHT31;67766;51.964;5.660;2023-04-24T16:21:21;15.7;43.8
78475;SHT31;67766;51.964;5.660;2023-04-24T16:23:50;15.7;44.2
78475;SHT31;67766;51.964;5.660;2023-04-24T16:26:20;15.6;44.1